Time;durP1;ratioP1;P1;durP2;ratioP2;P2;SDS_P1;SDS_P2;PMS_P1;PMS_P2;Temp;Humidity;BMP_temperature;BMP_pressure;BME280_temperature;BME280_humidity;BME280_pressure;Samples;Min_cycle;Max_cycle;Signal;HPM_P1;HPM_P2
2021/01/25 00:00:58;;;;;;;;;;;8.60;93.90;;;;;;5004598;28;83780;-50
2021/01/25 00:03:24;;;;;;;;;;;8.60;93.90;;;;;;5007129;28;83842;-48
2021/01/25 00:05:49;;;;;;;;;;;8.60;93.90;;;;;;5001228;28;83233;-50
2021/01/25 00:08:15;;;;;;;;;;;8.60;93.90;;;;;;5002057;28;82539;-50
2021/01/25 00:10:40;;;;;;;;;;;8.60;93.90;;;;;;5002619;28;83824;-52
2021/01/25 00:13:06;;;;;;;;;;;8.50;93.90;;;;;;5003367;28;82520;-51
2021/01/25 00:15:31;;;;;;;;;;;8.60;93.90;;;;;;5004492;28;82161;-51
2021/01/25 00:17:57;;;;;;;;;;;8.60;93.90;;;;;;5005726;28;82111;-50
2021/01/25 00:20:22;;;;;;;;;;;8.50;93.90;;;;;;5004406;28;84170;-52
2021/01/25 00:22:48;;;;;;;;;;;8.60;94.00;;;;;;5004165;28;82204;-51
2021/01/25 00:25:13;;;;;;;;;;;8.50;93.90;;;;;;5007962;28;82676;-54
2021/01/25 00:27:39;;;;;;;;;;;8.50;93.90;;;;;;5003379;28;82233;-50
2021/01/25 00:30:05;;;;;;;;;;;8.50;94.00;;;;;;5002757;28;83809;-51
2021/01/25 00:32:30;;;;;;;;;;;8.50;93.90;;;;;;5001792;28;85048;-50
2021/01/25 00:34:56;;;;;;;;;;;8.50;93.90;;;;;;5001495;28;83318;-51
2021/01/25 00:37:22;;;;;;;;;;;8.50;93.90;;;;;;5000911;28;83920;-49
2021/01/25 00:39:47;;;;;;;;;;;8.50;93.90;;;;;;5001336;28;84813;-49
2021/01/25 00:42:13;;;;;;;;;;;8.50;94.00;;;;;;5002903;28;82154;-49
2021/01/25 00:44:38;;;;;;;;;;;8.60;93.90;;;;;;5005945;28;83077;-50
2021/01/25 00:47:04;;;;;;;;;;;8.50;93.90;;;;;;5003021;28;82116;-51
2021/01/25 00:49:29;;;;;;;;;;;8.60;94.00;;;;;;5005101;28;82407;-51
2021/01/25 00:51:55;;;;;;;;;;;8.50;94.00;;;;;;5001640;28;83572;-50
2021/01/25 00:54:20;;;;;;;;;;;8.50;94.00;;;;;;5000810;28;82118;-49
2021/01/25 00:56:49;;;;;;;;;;;8.50;94.00;;;;;;5002243;28;82509;-51
2021/01/25 00:59:15;;;;;;;;;;;8.50;94.00;;;;;;5002245;28;83341;-51
2021/01/25 01:01:40;;;;;;;;;;;8.50;94.00;;;;;;5003851;28;82953;-50
2021/01/25 01:04:06;;;;;;;;;;;8.60;94.00;;;;;;5002274;28;83780;-53
2021/01/25 01:06:31;;;;;;;;;;;8.50;94.00;;;;;;5006870;28;84273;-51
2021/01/25 01:08:57;;;;;;;;;;;8.50;94.00;;;;;;5002011;28;83904;-48
2021/01/25 01:11:22;;;;;;;;;;;8.50;94.00;;;;;;5001388;28;83140;-50
2021/01/25 01:13:48;;;;;;;;;;;8.50;94.00;;;;;;5000716;28;82105;-53
2021/01/25 01:16:13;;;;;;;;;;;8.50;94.00;;;;;;5002045;28;82187;-50
2021/01/25 01:18:39;;;;;;;;;;;8.50;94.00;;;;;;5001711;28;84496;-50
2021/01/25 01:21:05;;;;;;;;;;;8.50;94.00;;;;;;5002604;28;82066;-49
2021/01/25 01:23:31;;;;;;;;;;;8.50;94.00;;;;;;5000900;28;83459;-50
2021/01/25 01:25:56;;;;;;;;;;;8.50;94.00;;;;;;5000552;28;82257;-50
2021/01/25 01:28:22;;;;;;;;;;;8.50;94.00;;;;;;5002366;28;82096;-53
2021/01/25 01:30:47;;;;;;;;;;;8.50;94.00;;;;;;5000292;28;82077;-50
2021/01/25 01:33:13;;;;;;;;;;;8.50;94.00;;;;;;5000842;28;83148;-50
2021/01/25 01:35:38;;;;;;;;;;;8.50;94.00;;;;;;5002641;28;83321;-50
2021/01/25 01:38:04;;;;;;;;;;;8.50;94.00;;;;;;5002555;28;83163;-51
2021/01/25 01:40:29;;;;;;;;;;;8.50;94.00;;;;;;5003003;28;82064;-51
2021/01/25 01:42:55;;;;;;;;;;;8.50;94.00;;;;;;5003757;28;83044;-51
2021/01/25 01:45:20;;;;;;;;;;;8.50;93.90;;;;;;5001918;28;84906;-51
2021/01/25 01:47:46;;;;;;;;;;;8.50;93.90;;;;;;4999707;28;82172;-49
2021/01/25 01:50:12;;;;;;;;;;;8.50;93.90;;;;;;5003033;28;81605;-50
2021/01/25 01:52:38;;;;;;;;;;;8.50;94.00;;;;;;5003293;28;83383;-52
2021/01/25 01:55:03;;;;;;;;;;;8.50;94.00;;;;;;5003754;28;83950;-52
2021/01/25 01:57:31;;;;;;;;;;;8.50;94.00;;;;;;5001456;28;84300;-51
2021/01/25 01:59:57;;;;;;;;;;;8.50;93.90;;;;;;4999823;28;82198;-49
2021/01/25 02:02:22;;;;;;;;;;;8.50;94.00;;;;;;5001791;28;83460;-54
2021/01/25 02:04:48;;;;;;;;;;;8.50;94.00;;;;;;5002213;28;84293;-51
2021/01/25 02:07:14;;;;;;;;;;;8.50;94.00;;;;;;5000392;28;82126;-50
2021/01/25 02:09:41;;;;;;;;;;;8.50;94.00;;;;;;4999866;28;82911;-50
2021/01/25 02:12:07;;;;;;;;;;;8.50;94.00;;;;;;5001817;28;84313;-50
2021/01/25 02:14:33;;;;;;;;;;;8.50;94.00;;;;;;5003545;28;82898;-51
2021/01/25 02:16:59;;;;;;;;;;;8.50;94.00;;;;;;5000175;28;83664;-49
2021/01/25 02:19:53;;;;;;;;;;;8.50;94.00;;;;;;4999733;28;82102;-49
2021/01/25 02:22:31;;;;;;;;;;;8.40;94.00;;;;;;5000762;28;83139;-50
2021/01/25 02:25:20;;;;;;;;;;;8.40;94.00;;;;;;5000763;28;82102;-50
2021/01/25 02:27:46;;;;;;;;;;;8.40;94.00;;;;;;5000169;28;82676;-50
2021/01/25 02:30:12;;;;;;;;;;;8.40;93.90;;;;;;5000791;28;83634;-54
2021/01/25 02:32:38;;;;;;;;;;;8.40;94.00;;;;;;5003591;28;84242;-49
2021/01/25 02:35:06;;;;;;;;;;;8.40;93.90;;;;;;5006074;28;82107;-54
2021/01/25 02:37:32;;;;;;;;;;;8.50;93.90;;;;;;5000600;28;84648;-49
2021/01/25 02:39:58;;;;;;;;;;;8.50;94.30;;;;;;5000919;28;81346;-49
2021/01/25 02:42:26;;;;;;;;;;;8.40;94.00;;;;;;4999462;28;82096;-50
2021/01/25 02:44:52;;;;;;;;;;;8.40;94.00;;;;;;5003032;28;83276;-51
2021/01/25 02:47:18;;;;;;;;;;;8.40;94.00;;;;;;5001411;28;82995;-49
2021/01/25 02:49:44;;;;;;;;;;;8.50;94.00;;;;;;5001746;28;82496;-51
2021/01/25 02:52:11;;;;;;;;;;;8.40;94.00;;;;;;5000834;28;82526;-50
2021/01/25 02:54:37;;;;;;;;;;;8.50;94.00;;;;;;5003296;28;82157;-49
2021/01/25 02:57:02;;;;;;;;;;;8.50;94.00;;;;;;5001226;28;82318;-50
2021/01/25 02:59:28;;;;;;;;;;;8.40;94.00;;;;;;5001775;28;82130;-50
2021/01/25 03:01:53;;;;;;;;;;;8.40;94.10;;;;;;5001223;28;83217;-49
2021/01/25 03:04:20;;;;;;;;;;;8.40;94.10;;;;;;5000862;28;82328;-49
2021/01/25 03:06:45;;;;;;;;;;;8.40;94.10;;;;;;4998610;28;82141;-49
2021/01/25 03:09:11;;;;;;;;;;;8.40;94.10;;;;;;5000590;28;82863;-54
2021/01/25 03:11:39;;;;;;;;;;;8.40;94.10;;;;;;5005260;28;84323;-53
2021/01/25 03:14:08;;;;;;;;;;;8.40;94.00;;;;;;5002737;28;82102;-50
2021/01/25 03:16:34;;;;;;;;;;;8.40;94.10;;;;;;5006930;28;83452;-51
2021/01/25 03:19:00;;;;;;;;;;;8.40;94.10;;;;;;5004203;28;82060;-49
2021/01/25 03:21:25;;;;;;;;;;;8.40;94.10;;;;;;5003659;28;82098;-50
2021/01/25 03:23:51;;;;;;;;;;;8.40;94.20;;;;;;5003547;28;84362;-51
2021/01/25 03:26:17;;;;;;;;;;;8.40;94.00;;;;;;5002587;28;82185;-50
2021/01/25 03:28:42;;;;;;;;;;;8.40;94.10;;;;;;5002184;28;81961;-51
2021/01/25 03:31:08;;;;;;;;;;;8.40;94.10;;;;;;5002140;28;83624;-51
2021/01/25 03:33:33;;;;;;;;;;;8.40;94.10;;;;;;5002375;28;82090;-50
2021/01/25 03:35:59;;;;;;;;;;;8.40;94.10;;;;;;5001891;28;83013;-50
2021/01/25 03:38:24;;;;;;;;;;;8.40;94.10;;;;;;5004454;28;82224;-49
2021/01/25 03:40:50;;;;;;;;;;;8.40;94.10;;;;;;5002392;28;83968;-49
2021/01/25 03:43:15;;;;;;;;;;;8.40;94.10;;;;;;5002546;28;82171;-50
2021/01/25 03:45:41;;;;;;;;;;;8.40;94.10;;;;;;5002305;28;82185;-49
2021/01/25 03:48:07;;;;;;;;;;;8.40;94.10;;;;;;5003111;28;82535;-50
2021/01/25 03:50:33;;;;;;;;;;;8.40;94.10;;;;;;5003384;28;83087;-50
2021/01/25 03:53:02;;;;;;;;;;;8.40;94.10;;;;;;5004410;28;81356;-50
2021/01/25 03:55:27;;;;;;;;;;;8.40;94.10;;;;;;5005403;28;82811;-50
2021/01/25 03:57:53;;;;;;;;;;;8.40;94.10;;;;;;5004719;28;82122;-52
2021/01/25 04:00:20;;;;;;;;;;;8.40;94.10;;;;;;5008121;28;83059;-49
2021/01/25 04:02:45;;;;;;;;;;;8.40;94.10;;;;;;5004403;28;84569;-53
2021/01/25 04:05:11;;;;;;;;;;;8.40;94.10;;;;;;5005789;28;82081;-54
2021/01/25 04:07:36;;;;;;;;;;;8.40;94.10;;;;;;5005112;28;82104;-53
2021/01/25 04:10:03;;;;;;;;;;;8.40;94.10;;;;;;5005319;28;83182;-49
2021/01/25 04:12:28;;;;;;;;;;;8.40;94.10;;;;;;5004853;28;82074;-49
2021/01/25 04:14:54;;;;;;;;;;;8.40;94.00;;;;;;5004713;28;82113;-51
2021/01/25 04:17:19;;;;;;;;;;;8.40;94.00;;;;;;5005485;28;82971;-49
2021/01/25 04:19:45;;;;;;;;;;;8.40;94.10;;;;;;5005790;28;82185;-52
2021/01/25 04:22:10;;;;;;;;;;;8.30;94.10;;;;;;5007478;28;83622;-50
2021/01/25 04:24:36;;;;;;;;;;;8.30;94.00;;;;;;5003720;28;83117;-49
2021/01/25 04:27:01;;;;;;;;;;;8.30;94.00;;;;;;5003396;28;83946;-51
2021/01/25 04:29:27;;;;;;;;;;;8.30;94.10;;;;;;5003851;28;82578;-51
2021/01/25 04:31:52;;;;;;;;;;;8.30;94.10;;;;;;5005350;28;82092;-53
2021/01/25 04:34:18;;;;;;;;;;;8.30;94.10;;;;;;5002886;28;83765;-50
2021/01/25 04:36:43;;;;;;;;;;;8.30;94.10;;;;;;5000723;28;84431;-48
2021/01/25 04:39:09;;;;;;;;;;;8.30;94.10;;;;;;5001394;28;82135;-51
2021/01/25 04:41:34;;;;;;;;;;;8.30;94.10;;;;;;5004856;28;81637;-50
2021/01/25 04:44:00;;;;;;;;;;;8.30;94.10;;;;;;5001116;28;82134;-50
2021/01/25 04:46:26;;;;;;;;;;;8.30;94.10;;;;;;5001256;28;82079;-50
2021/01/25 04:48:51;;;;;;;;;;;8.30;94.10;;;;;;5000379;28;83496;-50
2021/01/25 04:51:18;;;;;;;;;;;8.30;94.10;;;;;;5002176;28;82083;-51
2021/01/25 04:53:44;;;;;;;;;;;8.30;94.10;;;;;;5002685;28;82558;-50
2021/01/25 04:56:10;;;;;;;;;;;8.30;94.10;;;;;;5001902;28;82921;-52
2021/01/25 04:58:36;;;;;;;;;;;8.30;94.10;;;;;;5002069;28;83631;-51
2021/01/25 05:01:02;;;;;;;;;;;8.30;94.20;;;;;;5001453;28;83014;-49
2021/01/25 05:03:28;;;;;;;;;;;8.30;94.20;;;;;;5002773;28;83143;-50
2021/01/25 05:05:54;;;;;;;;;;;8.30;94.10;;;;;;5001187;28;83735;-50
2021/01/25 05:08:19;;;;;;;;;;;8.30;94.10;;;;;;5001733;28;83101;-50
2021/01/25 05:10:45;;;;;;;;;;;8.30;94.10;;;;;;5002581;28;82085;-50
2021/01/25 05:13:19;;;;;;;;;;;8.30;94.20;;;;;;5002193;28;83072;-50
2021/01/25 05:15:46;;;;;;;;;;;8.30;94.20;;;;;;5004470;28;83074;-53
2021/01/25 05:18:13;;;;;;;;;;;8.30;94.20;;;;;;5003272;28;82100;-50
2021/01/25 05:20:38;;;;;;;;;;;8.30;94.20;;;;;;5003245;28;84188;-50
2021/01/25 05:23:14;;;;;;;;;;;8.30;94.20;;;;;;5003405;28;83210;-52
2021/01/25 05:25:39;;;;;;;;;;;8.30;94.20;;;;;;5007520;28;82053;-51
2021/01/25 05:28:16;;;;;;;;;;;8.30;94.10;;;;;;5004037;28;84616;-52
2021/01/25 05:30:41;;;;;;;;;;;8.30;94.10;;;;;;5004403;28;81388;-50
2021/01/25 05:33:07;;;;;;;;;;;8.30;94.10;;;;;;5004059;28;82103;-51
2021/01/25 05:35:33;;;;;;;;;;;8.30;94.10;;;;;;5004075;28;83200;-53
2021/01/25 05:37:59;;;;;;;;;;;8.20;94.20;;;;;;5003043;28;84206;-50
2021/01/25 05:40:26;;;;;;;;;;;8.20;94.20;;;;;;5003948;28;85146;-49
2021/01/25 05:42:52;;;;;;;;;;;8.20;94.20;;;;;;5003105;28;83958;-51
2021/01/25 05:45:18;;;;;;;;;;;8.20;94.10;;;;;;5002014;28;82188;-50
2021/01/25 05:47:51;;;;;;;;;;;8.30;94.10;;;;;;5004033;28;83575;-50
2021/01/25 05:50:36;;;;;;;;;;;8.20;94.10;;;;;;4999695;28;82114;-52
2021/01/25 05:53:03;;;;;;;;;;;8.20;94.10;;;;;;4999534;28;82838;-50
2021/01/25 05:55:29;;;;;;;;;;;8.30;94.10;;;;;;5004066;28;82259;-50
2021/01/25 05:57:54;;;;;;;;;;;8.20;94.10;;;;;;5003198;28;82062;-51
2021/01/25 06:00:20;;;;;;;;;;;8.20;94.20;;;;;;5003155;28;84017;-49
2021/01/25 06:02:47;;;;;;;;;;;8.20;94.10;;;;;;5002741;28;85611;-53
2021/01/25 06:05:30;;;;;;;;;;;8.20;94.20;;;;;;5003710;28;82103;-52
2021/01/25 06:08:02;;;;;;;;;;;8.20;94.10;;;;;;5000067;28;83774;-49
2021/01/25 06:10:33;;;;;;;;;;;8.20;94.10;;;;;;5001725;28;83453;-50
2021/01/25 06:13:03;;;;;;;;;;;8.20;94.10;;;;;;5000416;28;84419;-50
2021/01/25 06:15:29;;;;;;;;;;;8.20;94.10;;;;;;5002098;28;82256;-51
2021/01/25 06:17:56;;;;;;;;;;;8.20;94.10;;;;;;5002109;28;82087;-51
2021/01/25 06:20:22;;;;;;;;;;;8.20;94.10;;;;;;5002139;28;82589;-49
2021/01/25 06:22:48;;;;;;;;;;;8.20;94.10;;;;;;5001985;28;83318;-52
2021/01/25 06:25:15;;;;;;;;;;;8.20;94.10;;;;;;5003315;28;82108;-53
2021/01/25 06:27:42;;;;;;;;;;;8.20;94.10;;;;;;5001430;28;84644;-50
2021/01/25 06:30:08;;;;;;;;;;;8.20;94.10;;;;;;5000361;28;84692;-48
2021/01/25 06:32:33;;;;;;;;;;;8.20;94.20;;;;;;5001738;28;82172;-48
2021/01/25 06:35:03;;;;;;;;;;;8.20;94.20;;;;;;5001116;28;83037;-51
2021/01/25 06:37:28;;;;;;;;;;;8.20;94.10;;;;;;4999158;28;82119;-49
2021/01/25 06:39:56;;;;;;;;;;;8.20;94.10;;;;;;5000153;28;82915;-50
2021/01/25 06:42:30;;;;;;;;;;;8.20;94.20;;;;;;5002958;28;83324;-51
2021/01/25 06:44:55;;;;;;;;;;;8.20;94.20;;;;;;5001770;28;81353;-50
2021/01/25 06:47:21;;;;;;;;;;;8.20;94.20;;;;;;5003903;28;82103;-50
2021/01/25 06:49:46;;;;;;;;;;;8.20;94.20;;;;;;5005149;28;83717;-50
2021/01/25 06:52:13;;;;;;;;;;;8.20;94.20;;;;;;5008069;28;83043;-51
2021/01/25 06:54:43;;;;;;;;;;;8.20;94.10;;;;;;5004968;28;83285;-50
2021/01/25 06:57:09;;;;;;;;;;;8.20;94.10;;;;;;5004684;28;82129;-49
2021/01/25 06:59:35;;;;;;;;;;;8.20;94.10;;;;;;5005057;28;83806;-51
2021/01/25 07:02:05;;;;;;;;;;;8.20;94.20;;;;;;5002871;28;82127;-50
2021/01/25 07:04:31;;;;;;;;;;;8.20;94.20;;;;;;5004585;28;82076;-51
2021/01/25 07:06:56;;;;;;;;;;;8.20;94.20;;;;;;5005345;28;82114;-53
2021/01/25 07:09:29;;;;;;;;;;;8.20;94.20;;;;;;5006937;28;81865;-52
2021/01/25 07:12:01;;;;;;;;;;;8.20;94.20;;;;;;5004789;28;82110;-50
2021/01/25 07:14:29;;;;;;;;;;;8.20;94.20;;;;;;5004876;28;82110;-50
2021/01/25 07:16:55;;;;;;;;;;;8.20;94.20;;;;;;5005615;28;83033;-50
2021/01/25 07:19:21;;;;;;;;;;;8.20;94.20;;;;;;5004648;28;83518;-50
2021/01/25 07:21:47;;;;;;;;;;;8.20;94.20;;;;;;5002989;28;84395;-50
2021/01/25 07:24:17;;;;;;;;;;;8.10;94.20;;;;;;5002669;28;83966;-51
2021/01/25 07:26:43;;;;;;;;;;;8.20;94.20;;;;;;5001540;28;83410;-50
2021/01/25 07:29:12;;;;;;;;;;;8.20;94.20;;;;;;5006587;28;82878;-50
2021/01/25 07:31:38;;;;;;;;;;;8.10;94.20;;;;;;5001679;28;82100;-49
2021/01/25 07:34:07;;;;;;;;;;;8.10;94.20;;;;;;5005535;28;82397;-50
2021/01/25 07:36:34;;;;;;;;;;;8.20;94.20;;;;;;5006239;28;82461;-49
2021/01/25 07:38:59;;;;;;;;;;;8.20;94.10;;;;;;5003894;28;82073;-49
2021/01/25 07:41:25;;;;;;;;;;;8.20;94.20;;;;;;5002981;28;83891;-50
2021/01/25 07:43:51;;;;;;;;;;;8.20;94.10;;;;;;5002435;28;82170;-50
2021/01/25 07:46:21;;;;;;;;;;;8.20;94.10;;;;;;5001516;28;82642;-49
2021/01/25 07:48:50;;;;;;;;;;;8.20;94.10;;;;;;5001303;28;83646;-51
2021/01/25 07:51:19;;;;;;;;;;;8.20;94.20;;;;;;5003408;28;82111;-52
2021/01/25 07:53:45;;;;;;;;;;;8.10;94.10;;;;;;5004413;28;84086;-50
2021/01/25 07:56:17;;;;;;;;;;;8.20;94.20;;;;;;5001172;28;83891;-48
2021/01/25 07:58:46;;;;;;;;;;;8.20;94.10;;;;;;5009216;28;81379;-50
2021/01/25 08:01:17;;;;;;;;;;;8.20;94.20;;;;;;5000813;28;82750;-51
2021/01/25 08:03:44;;;;;;;;;;;8.20;94.20;;;;;;5005598;28;82262;-51
2021/01/25 08:06:10;;;;;;;;;;;8.20;94.10;;;;;;5003373;28;83352;-50
2021/01/25 08:08:36;;;;;;;;;;;8.20;94.20;;;;;;5003400;28;83167;-49
2021/01/25 08:11:05;;;;;;;;;;;8.10;94.10;;;;;;5004592;28;82206;-50
2021/01/25 08:13:33;;;;;;;;;;;8.20;94.20;;;;;;5000986;28;82736;-50
2021/01/25 08:16:01;;;;;;;;;;;8.20;94.10;;;;;;5004820;28;82958;-49
2021/01/25 08:18:45;;;;;;;;;;;8.20;94.10;;;;;;5002712;28;82137;-50
2021/01/25 08:21:15;;;;;;;;;;;8.10;94.00;;;;;;5006276;28;82965;-50
2021/01/25 08:23:43;;;;;;;;;;;8.10;94.00;;;;;;5001444;28;83056;-53
2021/01/25 08:26:10;;;;;;;;;;;8.10;94.10;;;;;;5004267;28;82122;-53
2021/01/25 08:28:38;;;;;;;;;;;8.20;94.00;;;;;;5001961;28;83691;-51
2021/01/25 08:31:12;;;;;;;;;;;8.10;94.00;;;;;;5003383;28;83092;-51
2021/01/25 08:33:39;;;;;;;;;;;8.10;94.10;;;;;;5005628;28;83328;-54
2021/01/25 08:36:05;;;;;;;;;;;8.10;94.00;;;;;;5003586;28;83485;-51
2021/01/25 08:38:32;;;;;;;;;;;8.10;94.10;;;;;;5002231;28;82200;-49
2021/01/25 08:40:59;;;;;;;;;;;8.10;94.00;;;;;;5001643;28;82146;-52
2021/01/25 08:43:32;;;;;;;;;;;8.10;94.00;;;;;;5005554;28;83624;-49
2021/01/25 08:46:11;;;;;;;;;;;8.10;94.00;;;;;;5004197;28;82411;-50
2021/01/25 08:48:37;;;;;;;;;;;8.10;94.00;;;;;;5003017;28;84071;-50
2021/01/25 08:51:12;;;;;;;;;;;8.10;94.00;;;;;;5000355;28;83086;-48
2021/01/25 08:53:37;;;;;;;;;;;8.10;94.00;;;;;;5002744;28;82711;-49
2021/01/25 08:56:13;;;;;;;;;;;8.10;94.00;;;;;;5003255;28;83236;-52
2021/01/25 08:58:39;;;;;;;;;;;8.10;94.00;;;;;;5003378;28;82193;-52
2021/01/25 09:01:11;;;;;;;;;;;8.10;94.00;;;;;;5002642;28;82325;-49
2021/01/25 09:03:37;;;;;;;;;;;8.10;94.00;;;;;;5003773;28;83350;-50
2021/01/25 09:06:04;;;;;;;;;;;8.10;94.00;;;;;;5005005;28;82225;-50
2021/01/25 09:08:30;;;;;;;;;;;8.10;94.00;;;;;;5001583;28;84503;-50
2021/01/25 09:10:56;;;;;;;;;;;8.10;94.00;;;;;;5001729;28;82091;-49
2021/01/25 09:13:21;;;;;;;;;;;8.10;94.00;;;;;;5001524;28;82333;-50
2021/01/25 09:15:47;;;;;;;;;;;8.10;94.00;;;;;;5002379;28;82124;-50
2021/01/25 09:18:12;;;;;;;;;;;8.10;94.00;;;;;;5003586;28;82101;-50
2021/01/25 09:20:38;;;;;;;;;;;8.10;94.00;;;;;;5003979;28;83160;-51
2021/01/25 09:23:03;;;;;;;;;;;8.00;94.00;;;;;;5004372;28;84493;-50
2021/01/25 09:25:31;;;;;;;;;;;8.00;94.00;;;;;;5005351;28;83713;-51
2021/01/25 09:27:56;;;;;;;;;;;8.00;93.90;;;;;;5002492;28;84378;-49
2021/01/25 09:30:22;;;;;;;;;;;8.00;93.90;;;;;;5002302;28;82196;-49
2021/01/25 09:32:47;;;;;;;;;;;8.00;93.90;;;;;;5002831;28;82160;-51
2021/01/25 09:35:15;;;;;;;;;;;8.00;93.90;;;;;;5004040;28;82670;-54
2021/01/25 09:37:41;;;;;;;;;;;8.00;93.90;;;;;;5003095;28;81404;-51
2021/01/25 09:40:07;;;;;;;;;;;7.90;94.00;;;;;;5003234;28;82069;-50
2021/01/25 09:42:33;;;;;;;;;;;8.00;94.00;;;;;;5001238;28;82218;-49
2021/01/25 09:44:58;;;;;;;;;;;8.00;93.90;;;;;;5001167;28;83018;-52
2021/01/25 09:47:24;;;;;;;;;;;7.90;93.90;;;;;;5004598;28;83200;-50
2021/01/25 09:49:49;;;;;;;;;;;8.00;93.90;;;;;;5002161;28;82078;-49
2021/01/25 09:52:15;;;;;;;;;;;7.90;93.90;;;;;;5002867;28;82572;-50
2021/01/25 09:54:40;;;;;;;;;;;7.90;93.90;;;;;;5003182;28;82548;-51
2021/01/25 09:57:06;;;;;;;;;;;7.90;93.90;;;;;;5003958;28;82131;-50
2021/01/25 09:59:32;;;;;;;;;;;7.90;93.90;;;;;;5002542;28;83685;-51
2021/01/25 10:01:58;;;;;;;;;;;7.90;93.80;;;;;;5001199;28;83226;-54
2021/01/25 10:04:24;;;;;;;;;;;8.00;93.80;;;;;;5003763;28;82160;-49
2021/01/25 10:06:50;;;;;;;;;;;7.90;93.80;;;;;;5003067;28;83907;-53
2021/01/25 10:09:16;;;;;;;;;;;7.90;93.90;;;;;;5004069;28;85369;-50
2021/01/25 10:11:41;;;;;;;;;;;7.90;93.90;;;;;;5002927;28;84325;-52
2021/01/25 10:14:07;;;;;;;;;;;7.90;93.80;;;;;;5002928;28;82687;-52
2021/01/25 10:16:32;;;;;;;;;;;7.90;93.80;;;;;;5004078;28;82073;-50
2021/01/25 10:18:58;;;;;;;;;;;7.90;93.80;;;;;;5006186;28;82405;-53
2021/01/25 10:21:23;;;;;;;;;;;7.90;93.90;;;;;;5006689;28;83919;-53
2021/01/25 10:23:49;;;;;;;;;;;7.90;93.90;;;;;;5005140;28;82237;-50
2021/01/25 10:26:15;;;;;;;;;;;7.90;93.80;;;;;;5003501;28;84265;-52
2021/01/25 10:28:40;;;;;;;;;;;7.90;93.70;;;;;;5003440;28;83685;-50
2021/01/25 10:31:06;;;;;;;;;;;7.90;93.70;;;;;;5006332;28;82088;-54
2021/01/25 10:33:31;;;;;;;;;;;7.90;93.70;;;;;;5002968;28;83120;-49
2021/01/25 10:35:57;;;;;;;;;;;7.90;93.80;;;;;;5004559;28;82124;-49
2021/01/25 10:38:24;;;;;;;;;;;7.80;93.70;;;;;;5005685;28;82959;-50
2021/01/25 10:40:50;;;;;;;;;;;7.90;93.80;;;;;;5003024;28;84768;-51
2021/01/25 10:43:16;;;;;;;;;;;7.80;93.80;;;;;;5001971;28;82928;-52
2021/01/25 10:45:41;;;;;;;;;;;7.80;93.80;;;;;;5004033;28;82920;-51
2021/01/25 10:48:07;;;;;;;;;;;7.80;93.70;;;;;;5002369;28;83026;-50
2021/01/25 10:50:32;;;;;;;;;;;7.90;93.70;;;;;;5004151;28;81342;-50
2021/01/25 10:52:58;;;;;;;;;;;7.80;93.80;;;;;;5007257;28;82082;-51
2021/01/25 10:55:23;;;;;;;;;;;7.80;93.70;;;;;;5005838;28;82099;-51
2021/01/25 10:57:49;;;;;;;;;;;7.80;93.80;;;;;;5005086;28;83202;-53
2021/01/25 11:00:16;;;;;;;;;;;7.80;93.80;;;;;;5005016;28;82593;-51
2021/01/25 11:02:41;;;;;;;;;;;7.80;93.80;;;;;;5002047;28;82160;-49
2021/01/25 11:05:08;;;;;;;;;;;7.80;93.80;;;;;;5001978;28;84157;-50
2021/01/25 11:07:34;;;;;;;;;;;7.80;93.80;;;;;;5005639;28;84936;-50
2021/01/25 11:09:59;;;;;;;;;;;7.80;93.80;;;;;;5004080;28;82931;-50
2021/01/25 11:12:25;;;;;;;;;;;7.80;93.80;;;;;;5004900;28;82577;-50
2021/01/25 11:14:50;;;;;;;;;;;7.80;93.80;;;;;;5004093;28;81388;-50
2021/01/25 11:17:16;;;;;;;;;;;7.80;93.80;;;;;;5004744;28;83183;-51
2021/01/25 11:19:42;;;;;;;;;;;7.80;93.70;;;;;;5005415;28;84574;-52
2021/01/25 11:22:07;;;;;;;;;;;7.80;93.70;;;;;;5005229;28;83886;-50
2021/01/25 11:24:33;;;;;;;;;;;7.80;93.70;;;;;;5002730;28;83199;-50
2021/01/25 11:27:02;;;;;;;;;;;7.80;93.70;;;;;;5002485;28;82575;-50
2021/01/25 11:29:30;;;;;;;;;;;7.80;93.70;;;;;;5004346;28;82221;-50
2021/01/25 11:32:02;;;;;;;;;;;7.80;93.70;;;;;;5003606;28;83613;-51
2021/01/25 11:34:28;;;;;;;;;;;7.80;93.70;;;;;;5004586;28;84337;-49
2021/01/25 11:36:55;;;;;;;;;;;7.80;93.80;;;;;;5002897;28;82196;-49
2021/01/25 11:39:21;;;;;;;;;;;7.80;93.70;;;;;;5002632;28;82728;-50
2021/01/25 11:41:47;;;;;;;;;;;7.80;93.70;;;;;;5002367;28;82106;-50
2021/01/25 11:44:12;;;;;;;;;;;7.70;93.60;;;;;;5003522;28;82156;-49
2021/01/25 11:46:38;;;;;;;;;;;7.70;93.70;;;;;;5002863;28;84048;-52
2021/01/25 11:49:04;;;;;;;;;;;7.80;93.70;;;;;;5004433;28;82250;-52
2021/01/25 11:51:29;;;;;;;;;;;7.80;93.70;;;;;;5005569;28;82099;-51
2021/01/25 11:53:55;;;;;;;;;;;7.80;93.80;;;;;;5004480;28;83491;-50
2021/01/25 11:56:20;;;;;;;;;;;7.70;93.80;;;;;;5006391;28;83818;-51
2021/01/25 11:58:46;;;;;;;;;;;7.70;93.80;;;;;;5001611;28;83547;-50
2021/01/25 12:01:11;;;;;;;;;;;7.70;93.70;;;;;;5002069;28;82086;-49
2021/01/25 12:03:37;;;;;;;;;;;7.80;93.80;;;;;;5003921;28;82406;-49
2021/01/25 12:06:02;;;;;;;;;;;7.70;93.80;;;;;;5004677;28;82843;-53
2021/01/25 12:08:28;;;;;;;;;;;7.80;93.80;;;;;;5005904;28;82153;-50
2021/01/25 12:10:53;;;;;;;;;;;7.80;93.80;;;;;;5002274;28;84574;-51
2021/01/25 12:13:19;;;;;;;;;;;7.70;93.80;;;;;;5001402;28;82707;-50
2021/01/25 12:15:45;;;;;;;;;;;7.70;93.80;;;;;;5002794;28;82143;-49
2021/01/25 12:18:10;;;;;;;;;;;7.70;93.80;;;;;;5006541;28;82104;-52
2021/01/25 12:20:36;;;;;;;;;;;7.80;93.80;;;;;;5005203;28;82114;-53
2021/01/25 12:23:01;;;;;;;;;;;7.70;93.80;;;;;;5004281;28;83833;-50
2021/01/25 12:25:27;;;;;;;;;;;7.70;93.70;;;;;;5000964;28;82410;-49
2021/01/25 12:27:54;;;;;;;;;;;7.70;93.80;;;;;;5002128;28;81420;-53
2021/01/25 12:30:20;;;;;;;;;;;7.80;93.80;;;;;;5000762;28;82753;-51
2021/01/25 12:32:46;;;;;;;;;;;7.70;93.80;;;;;;5002357;28;84281;-50
2021/01/25 12:35:12;;;;;;;;;;;7.70;93.90;;;;;;5000458;28;83034;-49
2021/01/25 12:37:38;;;;;;;;;;;7.80;93.80;;;;;;5000604;28;85204;-50
2021/01/25 12:40:04;;;;;;;;;;;7.80;93.90;;;;;;5005200;28;83070;-50
2021/01/25 12:42:30;;;;;;;;;;;7.70;93.80;;;;;;5002759;28;83512;-51
2021/01/25 12:44:55;;;;;;;;;;;7.70;93.80;;;;;;5000918;28;85249;-49
2021/01/25 12:47:21;;;;;;;;;;;7.80;93.90;;;;;;5001212;28;83930;-50
2021/01/25 12:49:46;;;;;;;;;;;7.80;93.80;;;;;;5001234;28;82481;-52
2021/01/25 12:52:12;;;;;;;;;;;7.80;93.80;;;;;;5003145;28;82370;-49
2021/01/25 12:54:37;;;;;;;;;;;7.70;93.80;;;;;;5003975;28;82067;-52
2021/01/25 12:57:03;;;;;;;;;;;7.80;93.70;;;;;;5005066;28;82147;-49
2021/01/25 12:59:28;;;;;;;;;;;7.70;93.80;;;;;;5001506;28;84620;-51
2021/01/25 13:01:54;;;;;;;;;;;7.80;93.70;;;;;;5003157;28;86386;-49
2021/01/25 13:04:19;;;;;;;;;;;7.80;93.70;;;;;;5001800;28;83327;-51
2021/01/25 13:06:45;;;;;;;;;;;7.80;93.70;;;;;;5002404;28;82087;-49
2021/01/25 13:09:10;;;;;;;;;;;7.70;93.70;;;;;;5003292;28;82108;-50
2021/01/25 13:11:36;;;;;;;;;;;7.80;93.70;;;;;;5003976;28;84224;-51
2021/01/25 13:14:01;;;;;;;;;;;7.70;93.80;;;;;;5003267;28;83388;-50
2021/01/25 13:16:28;;;;;;;;;;;7.80;93.80;;;;;;5000703;28;84147;-51
2021/01/25 13:18:54;;;;;;;;;;;7.80;93.80;;;;;;4999973;28;82504;-50
2021/01/25 13:21:20;;;;;;;;;;;7.80;93.80;;;;;;5002837;28;82101;-50
2021/01/25 13:23:45;;;;;;;;;;;7.80;93.90;;;;;;4999646;28;84089;-50
2021/01/25 13:26:11;;;;;;;;;;;7.80;93.80;;;;;;5001397;28;82124;-51
2021/01/25 13:28:36;;;;;;;;;;;7.80;93.80;;;;;;5002748;28;82114;-51
2021/01/25 13:31:02;;;;;;;;;;;7.80;93.70;;;;;;5003797;28;83275;-50
2021/01/25 13:33:27;;;;;;;;;;;7.80;93.80;;;;;;5004107;28;82175;-51
2021/01/25 13:35:53;;;;;;;;;;;7.80;93.80;;;;;;5003847;28;83107;-50
2021/01/25 13:38:18;;;;;;;;;;;7.80;93.80;;;;;;5003084;28;84830;-49
2021/01/25 13:40:44;;;;;;;;;;;7.80;93.80;;;;;;5000937;28;82725;-49
2021/01/25 13:43:09;;;;;;;;;;;7.80;93.80;;;;;;5002842;28;82943;-50
2021/01/25 13:45:35;;;;;;;;;;;7.80;93.80;;;;;;5001450;28;82107;-49
2021/01/25 13:48:02;;;;;;;;;;;7.80;93.70;;;;;;5001888;28;84173;-52
2021/01/25 13:50:28;;;;;;;;;;;7.80;93.70;;;;;;5001704;28;84502;-49
2021/01/25 13:52:54;;;;;;;;;;;7.80;93.80;;;;;;5001742;28;82189;-49
2021/01/25 13:55:19;;;;;;;;;;;7.70;93.80;;;;;;5003558;28;82458;-51
2021/01/25 13:57:45;;;;;;;;;;;7.80;93.80;;;;;;5003050;28;83527;-50
2021/01/25 14:00:11;;;;;;;;;;;7.80;93.80;;;;;;5002331;28;82095;-50
2021/01/25 14:02:37;;;;;;;;;;;7.80;93.80;;;;;;4999839;28;82511;-51
2021/01/25 14:05:03;;;;;;;;;;;7.80;93.80;;;;;;5002655;28;83606;-51
2021/01/25 14:07:29;;;;;;;;;;;7.80;93.80;;;;;;5000180;28;82172;-51
2021/01/25 14:09:56;;;;;;;;;;;7.80;93.80;;;;;;5000949;28;83877;-50
2021/01/25 14:12:23;;;;;;;;;;;7.80;93.80;;;;;;4998484;28;84885;-50
2021/01/25 14:14:48;;;;;;;;;;;7.80;93.80;;;;;;5003609;28;82884;-51
2021/01/25 14:17:14;;;;;;;;;;;7.80;93.70;;;;;;5003042;28;82707;-54
2021/01/25 14:19:40;;;;;;;;;;;7.80;93.70;;;;;;5004092;28;82764;-50
2021/01/25 14:22:05;;;;;;;;;;;7.80;93.70;;;;;;5002523;28;83679;-49
2021/01/25 14:24:31;;;;;;;;;;;7.80;93.70;;;;;;4999120;28;83074;-51
2021/01/25 14:26:57;;;;;;;;;;;7.80;93.70;;;;;;5002917;28;82131;-49